Time;durP1;ratioP1;P1;durP2;ratioP2;P2;SDS_P1;SDS_P2;PMS_P1;PMS_P2;Temp;Humidity;BMP_temperature;BMP_pressure;BME280_temperature;BME280_humidity;BME280_pressure;Samples;Min_cycle;Max_cycle;Signal;HPM_P1;HPM_P2
2023/10/08 00:01:35;;;;;;;20.67;6.57;;;;;;;18.76;100.00;102294.03;5070383;28;20024;-59
2023/10/08 00:04:04;;;;;;;19.23;6.22;;;;;;;18.73;100.00;102310.19;5070581;28;20028;-59
2023/10/08 00:06:30;;;;;;;21.10;6.43;;;;;;;18.68;100.00;102313.06;5070581;28;20517;-61
2023/10/08 00:08:59;;;;;;;22.23;5.97;;;;;;;18.65;100.00;102308.72;5070107;28;20115;-59
2023/10/08 00:11:25;;;;;;;19.73;6.40;;;;;;;18.60;100.00;102308.06;5070772;28;20021;-57
2023/10/08 00:13:55;;;;;;;23.88;7.03;;;;;;;18.57;100.00;102308.19;5070192;28;20024;-62
2023/10/08 00:16:21;;;;;;;23.42;6.05;;;;;;;18.54;100.00;102303.88;5070950;28;20047;-61
2023/10/08 00:18:50;;;;;;;24.45;6.78;;;;;;;18.49;100.00;102302.34;5070235;28;20379;-61
2023/10/08 00:21:25;;;;;;;27.33;7.03;;;;;;;18.44;100.00;102310.56;5070463;28;20569;-61
2023/10/08 00:24:00;;;;;;;17.70;5.78;;;;;;;18.44;100.00;102292.75;5070266;28;20024;-57
2023/10/08 00:26:32;;;;;;;20.10;6.55;;;;;;;18.46;100.00;102286.47;5070401;28;20025;-60
2023/10/08 00:29:06;;;;;;;18.77;6.28;;;;;;;18.46;100.00;102283.78;5069219;28;20078;-59
2023/10/08 00:31:37;;;;;;;21.25;6.35;;;;;;;18.51;100.00;102289.81;5069690;28;20028;-59
2023/10/08 00:34:05;;;;;;;23.58;6.68;;;;;;;18.53;100.00;102274.56;5069790;28;20027;-59
2023/10/08 00:36:33;;;;;;;26.30;6.93;;;;;;;18.48;100.00;102274.78;5069841;28;20020;-60
2023/10/08 00:39:00;;;;;;;25.15;6.80;;;;;;;18.51;100.00;102281.81;5069796;28;20058;-62
2023/10/08 00:41:30;;;;;;;23.38;6.20;;;;;;;18.51;100.00;102279.13;5070022;28;20017;-58
2023/10/08 00:43:56;;;;;;;27.95;6.38;;;;;;;18.50;100.00;102270.25;5068796;28;20040;-61
2023/10/08 00:46:26;;;;;;;21.75;6.30;;;;;;;18.51;100.00;102260.44;5069754;28;20426;-61
2023/10/08 00:48:54;;;;;;;23.13;6.97;;;;;;;18.50;100.00;102256.03;5069422;28;20099;-61
2023/10/08 00:53:53;;;;;;;27.48;6.97;;;;;;;18.45;100.00;102256.22;5068874;28;20028;-58
2023/10/08 00:56:19;;;;;;;19.58;6.78;;;;;;;18.41;100.00;102265.31;5066652;28;20025;-59
2023/10/08 00:58:52;;;;;;;25.90;7.05;;;;;;;18.44;100.00;102266.06;5048037;28;20025;-58
2023/10/08 01:01:20;;;;;;;21.08;6.60;;;;;;;18.42;100.00;102275.94;5049042;28;20025;-60
2023/10/08 01:03:45;;;;;;;17.08;5.90;;;;;;;18.44;100.00;102278.53;5048990;28;20037;-59
2023/10/08 01:06:12;;;;;;;29.55;6.63;;;;;;;18.41;100.00;102281.31;5049164;28;20028;-63
2023/10/08 01:08:45;;;;;;;20.98;6.30;;;;;;;18.39;100.00;102284.06;5031161;28;20033;-59
2023/10/08 01:11:46;;;;;;;23.15;6.50;;;;;;;18.32;100.00;102282.59;5049149;28;20108;-60
2023/10/08 01:14:11;;;;;;;25.55;7.13;;;;;;;18.30;100.00;102279.13;5048851;28;20025;-58
2023/10/08 01:16:39;;;;;;;21.67;6.22;;;;;;;18.22;100.00;102281.28;5049329;28;20384;-60
2023/10/08 01:19:05;;;;;;;18.02;6.40;;;;;;;18.23;100.00;102280.34;5049439;28;20061;-60
2023/10/08 01:21:42;;;;;;;19.88;6.32;;;;;;;18.17;100.00;102279.69;5049356;28;20095;-59
2023/10/08 01:24:07;;;;;;;18.20;5.85;;;;;;;18.19;100.00;102287.63;5068332;28;20039;-59
2023/10/08 01:26:34;;;;;;;21.83;6.75;;;;;;;18.21;100.00;102284.88;5068506;28;20020;-59
2023/10/08 01:29:07;;;;;;;22.13;6.93;;;;;;;18.18;100.00;102291.19;5068066;28;20377;-59
2023/10/08 01:31:32;;;;;;;24.45;6.90;;;;;;;18.10;100.00;102280.88;5068239;28;20024;-60
2023/10/08 01:33:58;;;;;;;18.73;6.15;;;;;;;18.09;100.00;102296.91;5069158;28;20029;-61
2023/10/08 01:36:26;;;;;;;18.50;6.30;;;;;;;18.08;100.00;102295.16;5050357;28;20024;-59
2023/10/08 01:38:51;;;;;;;25.27;6.80;;;;;;;18.11;100.00;102284.41;5050693;28;20078;-60
2023/10/08 01:41:25;;;;;;;22.95;7.15;;;;;;;18.08;100.00;102290.72;5068850;28;20051;-59
2023/10/08 01:43:52;;;;;;;21.15;7.10;;;;;;;18.03;100.00;102290.06;5067239;28;20093;-61
2023/10/08 01:46:18;;;;;;;21.83;6.68;;;;;;;18.01;100.00;102292.78;5068521;28;20196;-58
2023/10/08 01:48:44;;;;;;;21.33;6.90;;;;;;;17.95;100.00;102298.38;5067290;28;20028;-60
2023/10/08 01:51:11;;;;;;;16.80;6.47;;;;;;;17.92;100.00;102307.38;5068981;28;20597;-59
2023/10/08 01:53:40;;;;;;;18.70;6.75;;;;;;;17.92;100.00;102317.16;5046416;28;20029;-59
2023/10/08 01:56:06;;;;;;;22.08;7.15;;;;;;;17.93;100.00;102325.09;5048579;28;20025;-57
2023/10/08 01:58:33;;;;;;;26.73;8.25;;;;;;;17.91;100.00;102334.94;5047324;28;20032;-59
2023/10/08 02:00:59;;;;;;;22.02;6.78;;;;;;;17.92;100.00;102336.72;5048450;28;20037;-59
2023/10/08 02:03:25;;;;;;;24.00;6.90;;;;;;;17.92;100.00;102341.16;5050839;28;20143;-59
2023/10/08 02:05:53;;;;;;;25.73;7.10;;;;;;;17.93;100.00;102325.09;5068375;28;20100;-61
2023/10/08 02:08:19;;;;;;;20.35;6.85;;;;;;;17.94;100.00;102337.50;5067919;28;20077;-59
2023/10/08 02:10:47;;;;;;;19.63;7.30;;;;;;;17.92;100.00;102327.81;5050274;28;20016;-60
2023/10/08 02:13:13;;;;;;;25.85;6.95;;;;;;;17.93;100.00;102335.75;5068043;28;20040;-59
2023/10/08 02:15:45;;;;;;;22.63;7.68;;;;;;;17.88;100.00;102316.41;5067077;28;20210;-59
2023/10/08 02:18:10;;;;;;;19.33;6.53;;;;;;;17.83;100.00;102314.88;5068443;28;20467;-61
2023/10/08 02:20:36;;;;;;;22.10;7.22;;;;;;;17.80;100.00;102313.22;5068780;28;20032;-60
2023/10/08 02:23:01;;;;;;;20.85;6.63;;;;;;;17.82;100.00;102316.66;5072191;28;20447;-58
2023/10/08 02:25:27;;;;;;;26.30;7.00;;;;;;;17.82;100.00;102308.66;5071637;28;20029;-61
2023/10/08 02:27:53;;;;;;;24.75;7.05;;;;;;;17.83;100.00;102299.75;5070816;28;20498;-60
2023/10/08 02:30:18;;;;;;;23.60;7.50;;;;;;;17.81;100.00;102299.81;5071538;28;20033;-60
2023/10/08 02:32:44;;;;;;;22.77;6.97;;;;;;;17.79;100.00;102300.81;5071161;28;20047;-62
2023/10/08 02:35:13;;;;;;;21.80;6.53;;;;;;;17.79;100.00;102311.47;5072030;28;20024;-61
2023/10/08 02:37:42;;;;;;;;;;;;;;;17.79;100.00;102327.47;5071612;28;20035;-60
2023/10/08 02:40:27;;;;;;;25.20;7.45;;;;;;;17.81;100.00;102328.25;5071887;28;19917;-60
2023/10/08 02:42:58;;;;;;;18.60;6.32;;;;;;;17.78;100.00;102318.59;5070814;28;20029;-60
2023/10/08 02:45:28;;;;;;;24.20;6.88;;;;;;;17.74;100.00;102324.13;5070609;28;20021;-58
2023/10/08 02:47:54;;;;;;;20.52;7.05;;;;;;;17.73;100.00;102323.25;5071036;28;20052;-57
2023/10/08 02:50:21;;;;;;;29.73;7.15;;;;;;;17.73;100.00;102322.38;5071562;28;20085;-61
2023/10/08 02:52:49;;;;;;;17.73;6.63;;;;;;;17.74;100.00;102313.44;5070692;28;20028;-61
2023/10/08 02:55:28;;;;;;;20.90;7.43;;;;;;;17.71;100.00;102318.91;5071641;28;20017;-61
2023/10/08 02:57:53;;;;;;;21.63;7.03;;;;;;;17.67;100.00;102313.69;5070335;28;20043;-59
2023/10/08 03:00:20;;;;;;;21.25;7.75;;;;;;;17.65;100.00;102318.25;5071680;28;20439;-62
2023/10/08 03:02:46;;;;;;;23.02;7.03;;;;;;;17.63;100.00;102324.53;5071154;28;20032;-62
2023/10/08 03:05:13;;;;;;;21.30;6.57;;;;;;;17.62;100.00;102342.34;5070338;28;20024;-62
2023/10/08 03:07:39;;;;;;;18.48;6.72;;;;;;;17.63;100.00;102332.53;5071096;28;20538;-58
2023/10/08 03:10:06;;;;;;;27.20;7.78;;;;;;;17.60;100.00;102322.88;5070335;28;20025;-59
2023/10/08 03:12:35;;;;;;;32.47;8.07;;;;;;;17.57;100.00;102314.16;5070583;28;20091;-59
2023/10/08 03:15:27;;;;;;;31.95;8.02;;;;;;;17.51;100.00;102316.13;5069957;28;20036;-57
2023/10/08 03:17:53;;;;;;;21.45;6.88;;;;;;;17.45;100.00;102315.50;5070657;28;20051;-62
2023/10/08 03:20:29;;;;;;;22.48;7.70;;;;;;;17.39;100.00;102320.13;5069936;28;20028;-60
2023/10/08 03:22:56;;;;;;;19.95;7.32;;;;;;;17.37;100.00;102327.31;5069201;28;20495;-59
2023/10/08 03:25:24;;;;;;;24.58;7.85;;;;;;;17.36;100.00;102322.91;5070086;28;20029;-61
2023/10/08 03:27:49;;;;;;;25.05;7.28;;;;;;;17.36;100.00;102320.25;5069707;28;20024;-59
2023/10/08 03:30:15;;;;;;;34.22;8.80;;;;;;;17.34;100.00;102321.25;5052002;28;20025;-60
2023/10/08 03:32:43;;;;;;;28.20;7.78;;;;;;;17.39;100.00;102336.13;5068603;28;20413;-60
2023/10/08 03:35:10;;;;;;;24.33;8.53;;;;;;;17.39;100.00;102343.25;5070139;28;20036;-62
2023/10/08 03:37:41;;;;;;;22.58;7.10;;;;;;;17.39;100.00;102348.56;5069855;28;20099;-59
2023/10/08 03:40:25;;;;;;;24.00;7.53;;;;;;;17.43;100.00;102364.38;5070912;28;20036;-61
2023/10/08 03:42:55;;;;;;;25.05;8.80;;;;;;;17.39;100.00;102348.56;5069336;28;20502;-60
2023/10/08 03:48:06;;;;;;;29.30;9.20;;;;;;;17.30;100.00;102358.66;5070439;28;20036;-61
2023/10/08 03:50:41;;;;;;;20.67;8.10;;;;;;;17.34;100.00;102359.41;5070189;28;20021;-64
2023/10/08 03:53:13;;;;;;;27.90;8.38;;;;;;;17.38;100.00;102371.69;5070038;28;20520;-60
2023/10/08 03:55:41;;;;;;;27.77;8.90;;;;;;;17.33;100.00;102368.31;5069141;28;20047;-59
2023/10/08 03:58:14;;;;;;;30.45;9.10;;;;;;;17.32;100.00;102365.72;5068366;28;20035;-60
2023/10/08 04:00:42;;;;;;;25.52;8.70;;;;;;;17.26;100.00;102377.47;5069881;28;20105;-59
2023/10/08 04:03:11;;;;;;;23.05;8.40;;;;;;;17.21;100.00;102380.31;5070359;28;20032;-61
2023/10/08 04:05:59;;;;;;;22.55;7.88;;;;;;;17.22;100.00;102386.53;5068579;28;20115;-59
2023/10/08 04:08:42;;;;;;;21.42;8.88;;;;;;;17.26;100.00;102404.13;5069226;28;20032;-61
2023/10/08 04:11:30;;;;;;;20.90;8.80;;;;;;;17.27;100.00;102408.50;5069819;28;20111;-60
2023/10/08 04:13:59;;;;;;;34.13;10.38;;;;;;;17.17;100.00;102403.53;5069095;28;20523;-60
2023/10/08 04:16:27;;;;;;;;;;;;;;;17.20;100.00;102388.38;5069152;28;20044;-61
2023/10/08 04:18:55;;;;;;;30.73;9.88;;;;;;;17.18;100.00;102386.63;5069119;28;19917;-61
2023/10/08 04:21:22;;;;;;;31.17;10.20;;;;;;;17.14;100.00;102395.66;5069371;28;20134;-60
2023/10/08 04:23:51;;;;;;;28.48;9.57;;;;;;;17.17;100.00;102406.22;5068464;28;20033;-62
2023/10/08 04:26:17;;;;;;;32.15;10.45;;;;;;;17.16;100.00;102404.44;5069854;28;20032;-60
2023/10/08 04:28:42;;;;;;;33.50;10.85;;;;;;;17.16;100.00;102414.25;5067969;28;20467;-60
2023/10/08 04:31:17;;;;;;;37.20;11.50;;;;;;;17.21;100.00;102406.06;5069114;28;20028;-60
2023/10/08 04:33:44;;;;;;;33.60;10.60;;;;;;;17.25;100.00;102402.38;5068051;28;20601;-60
2023/10/08 04:36:17;;;;;;;32.42;10.80;;;;;;;17.22;100.00;102391.84;5068865;28;20036;-60
2023/10/08 04:38:45;;;;;;;32.30;10.93;;;;;;;17.16;100.00;102385.81;5068359;28;20555;-61
2023/10/08 04:41:11;;;;;;;28.80;10.13;;;;;;;17.13;100.00;102399.22;5069542;28;20039;-60
2023/10/08 04:43:42;;;;;;;37.63;11.77;;;;;;;17.14;100.00;102405.44;5067479;28;20391;-62
2023/10/08 04:46:31;;;;;;;33.35;10.88;;;;;;;17.12;100.00;102407.28;5048465;28;20029;-61
2023/10/08 04:48:58;;;;;;;40.92;11.25;;;;;;;17.12;100.00;102401.97;5048384;28;20025;-61
2023/10/08 04:51:23;;;;;;;29.20;11.45;;;;;;;17.08;100.00;102395.00;5049087;28;20095;-61
2023/10/08 04:53:49;;;;;;;35.95;10.38;;;;;;;17.08;100.00;102398.56;5060212;28;20078;-60
2023/10/08 04:56:16;;;;;;;32.67;10.55;;;;;;;17.04;100.00;102410.22;5068664;28;20476;-59
2023/10/08 04:58:49;;;;;;;26.73;10.45;;;;;;;16.98;100.00;102399.78;5067747;28;20024;-61
2023/10/08 05:01:18;;;;;;;33.10;10.45;;;;;;;16.85;100.00;102394.88;5069230;28;20024;-60
2023/10/08 05:04:06;;;;;;;29.70;9.35;;;;;;;16.77;100.00;102408.47;5050865;28;20033;-60
2023/10/08 05:17:03;;;;;;;39.83;8.45;;;;;;;16.08;100.00;102423.19;5067928;28;20135;-59
2023/10/08 05:20:19;;;;;;;41.95;8.15;;;;;;;16.00;100.00;102423.44;5069317;28;20082;-61
2023/10/08 05:28:09;;;;;;;22.95;5.78;;;;;;;15.85;100.00;102440.69;5068076;28;20055;-59
2023/10/08 05:30:53;;;;;;;30.35;5.75;;;;;;;15.82;100.00;102432.81;5067701;28;20036;-60
2023/10/08 05:33:25;;;;;;;17.25;5.45;;;;;;;15.83;100.00;102433.69;5067840;28;20101;-61
2023/10/08 05:35:54;;;;;;;17.58;5.45;;;;;;;15.89;100.00;102417.53;5067216;28;20029;-58
2023/10/08 06:02:28;;;;;;;21.88;4.68;;;;;;;15.67;100.00;102450.09;5062882;28;20177;-62
2023/10/08 06:05:20;;;;;;;18.58;5.10;;;;;;;15.52;100.00;102454.94;5060891;28;20036;-61
2023/10/08 06:13:06;;;;;;;17.58;5.55;;;;;;;15.45;100.00;102458.69;5064641;28;20036;-63
2023/10/08 06:18:19;;;;;;;30.15;7.25;;;;;;;15.47;100.00;102474.59;5071823;28;20045;-65
2023/10/08 06:20:46;;;;;;;30.23;7.57;;;;;;;15.59;100.00;102474.22;5071153;28;20028;-64
2023/10/08 06:23:18;;;;;;;24.38;7.20;;;;;;;15.63;100.00;102483.84;5058346;28;20078;-63
2023/10/08 06:25:47;;;;;;;42.90;8.95;;;;;;;15.51;100.00;102489.53;5070975;28;20386;-63
2023/10/08 06:28:20;;;;;;;45.35;8.70;;;;;;;15.52;100.00;102496.56;5070412;28;20024;-60
2023/10/08 06:30:53;;;;;;;53.30;9.82;;;;;;;15.45;100.00;102501.19;5071338;28;20020;-62
2023/10/08 06:33:19;;;;;;;37.25;8.90;;;;;;;15.43;100.00;102502.13;5071544;28;20017;-65
2023/10/08 06:35:44;;;;;;;35.72;8.73;;;;;;;15.47;100.00;102503.81;5070523;28;20055;-61
2023/10/08 06:38:11;;;;;;;49.00;9.30;;;;;;;15.45;100.00;102500.31;5053112;28;20013;-60
2023/10/08 06:43:15;;;;;;;45.05;10.55;;;;;;;15.41;100.00;102500.41;5070515;28;20044;-59
2023/10/08 06:45:43;;;;;;;31.23;9.25;;;;;;;15.43;100.00;102494.16;5071537;28;20029;-61
2023/10/08 06:48:09;;;;;;;37.83;9.93;;;;;;;15.52;100.00;102507.19;5071882;28;20490;-61
2023/10/08 06:50:40;;;;;;;40.97;10.10;;;;;;;15.47;100.00;102514.44;5071147;28;20702;-60
2023/10/08 06:53:07;;;;;;;35.78;8.95;;;;;;;15.39;100.00;102518.16;5071306;28;20024;-58
2023/10/08 06:55:35;;;;;;;34.60;9.07;;;;;;;15.29;100.00;102519.31;5071112;28;20056;-58
2023/10/08 06:58:05;;;;;;;32.67;8.95;;;;;;;15.14;100.00;102516.16;5070282;28;20025;-57
2023/10/08 07:00:38;;;;;;;30.73;7.65;;;;;;;15.16;100.00;102517.00;5071337;28;20024;-57
2023/10/08 07:03:04;;;;;;;26.58;7.78;;;;;;;15.37;100.00;102520.00;5070579;28;20099;-60
2023/10/08 07:05:36;;;;;;;24.23;7.03;;;;;;;15.44;100.00;102523.34;5070928;28;20086;-62
2023/10/08 07:08:06;;;;;;;24.50;6.75;;;;;;;15.54;100.00;102531.94;5071176;28;20017;-68
2023/10/08 07:10:34;;;;;;;23.20;7.00;;;;;;;15.54;100.00;102531.94;5071284;28;20051;-62
2023/10/08 07:13:00;;;;;;;23.20;6.07;;;;;;;15.49;100.00;102531.19;5069854;28;20029;-72
2023/10/08 07:15:26;;;;;;;24.25;6.13;;;;;;;15.45;100.00;102534.84;5070948;28;20495;-72
2023/10/08 07:17:51;;;;;;;21.40;5.88;;;;;;;15.29;100.00;102537.91;5056795;28;20024;-73
2023/10/08 07:20:21;;;;;;;20.05;5.65;;;;;;;15.19;100.00;102536.41;5070367;28;20032;-73
2023/10/08 07:22:48;;;;;;;20.60;5.38;;;;;;;15.08;100.00;102542.00;5070296;28;20374;-73
2023/10/08 07:25:15;;;;;;;20.50;5.25;;;;;;;15.09;100.00;102543.75;5070492;28;20056;-67
2023/10/08 07:27:40;;;;;;;21.13;5.57;;;;;;;15.02;100.00;102545.72;5069120;28;20024;-65
2023/10/08 07:30:13;;;;;;;17.88;5.47;;;;;;;15.03;100.00;102552.75;5057657;28;20079;-62
2023/10/08 07:32:39;;;;;;;16.33;5.00;;;;;;;15.16;100.00;102558.59;5056963;28;20054;-67
2023/10/08 07:37:45;;;;;;;17.23;4.88;;;;;;;15.28;100.00;102554.75;5070439;28;20032;-62
2023/10/08 07:40:12;;;;;;;17.00;5.30;;;;;;;15.43;100.00;102552.59;5070131;28;20059;-63
2023/10/08 07:42:38;;;;;;;20.92;5.57;;;;;;;15.39;100.00;102549.16;5068784;28;20024;-61
2023/10/08 07:45:04;;;;;;;16.20;5.53;;;;;;;15.41;100.00;102564.13;5069995;28;20429;-58
2023/10/08 07:47:30;;;;;;;19.13;6.25;;;;;;;15.44;100.00;102562.31;5070747;28;20017;-62
2023/10/08 07:49:55;;;;;;;16.25;5.13;;;;;;;15.21;100.00;102561.16;5069383;28;20737;-62
2023/10/08 07:52:21;;;;;;;10.85;4.60;;;;;;;15.49;100.00;102568.38;5070108;28;20530;-61
2023/10/08 07:54:47;;;;;;;15.13;5.43;;;;;;;15.55;100.00;102570.88;5056215;28;20025;-61
2023/10/08 07:57:17;;;;;;;19.50;5.68;;;;;;;15.58;100.00;102572.56;5068703;28;20025;-62
2023/10/08 07:59:55;;;;;;;18.85;5.63;;;;;;;15.63;100.00;102568.84;5069373;28;20021;-60
2023/10/08 08:02:23;;;;;;;18.83;5.25;;;;;;;15.64;100.00;102570.63;5069540;28;20115;-63
2023/10/08 08:04:52;;;;;;;18.45;5.88;;;;;;;15.80;100.00;102572.81;5068719;28;20384;-63
2023/10/08 08:07:18;;;;;;;17.67;5.57;;;;;;;15.95;100.00;102576.84;5069513;28;20115;-64
2023/10/08 08:09:50;;;;;;;18.40;5.03;;;;;;;15.99;100.00;102580.31;5069434;28;20387;-62
2023/10/08 08:12:16;;;;;;;10.93;4.78;;;;;;;16.00;100.00;102587.38;5068144;28;20031;-65
2023/10/08 08:14:42;;;;;;;19.63;5.32;;;;;;;16.21;100.00;102587.66;5069196;28;20059;-68
2023/10/08 08:17:14;;;;;;;16.10;4.90;;;;;;;16.32;100.00;102593.53;5069604;28;20041;-67
2023/10/08 08:19:47;;;;;;;19.00;5.13;;;;;;;16.23;100.00;102585.84;5055166;28;20837;-72
2023/10/08 08:22:20;;;;;;;15.35;5.13;;;;;;;16.19;100.00;102593.03;5069034;28;20487;-69
2023/10/08 08:24:47;;;;;;;18.35;5.40;;;;;;;16.16;100.00;102603.75;5068780;28;20046;-67
2023/10/08 08:27:23;;;;;;;21.83;5.65;;;;;;;16.25;100.00;102613.25;5068210;28;20063;-68
2023/10/08 08:29:55;;;;;;;14.82;4.15;;;;;;;16.25;100.00;102605.25;5069041;28;20051;-68
2023/10/08 08:32:21;;;;;;;22.75;6.00;;;;;;;16.27;100.00;102614.06;5069060;28;20440;-69
2023/10/08 08:34:50;;;;;;;17.75;5.47;;;;;;;16.33;100.00;102613.00;5068313;28;20067;-66
2023/10/08 08:37:15;;;;;;;;;;;;;;;16.12;100.00;102618.94;5069260;28;20028;-66
2023/10/08 08:39:41;;;;;;;18.95;4.70;;;;;;;16.34;100.00;102626.28;5068803;28;20007;-65
2023/10/08 08:42:07;;;;;;;15.80;4.82;;;;;;;16.29;100.00;102625.56;5068074;28;20017;-67
2023/10/08 08:44:45;;;;;;;16.35;4.53;;;;;;;16.24;100.00;102628.34;5068588;28;20033;-66
2023/10/08 08:47:17;;;;;;;13.38;4.60;;;;;;;16.32;100.00;102633.44;5054686;28;20021;-68
2023/10/08 08:49:43;;;;;;;16.05;5.05;;;;;;;16.26;100.00;102625.63;5068372;28;20017;-63
2023/10/08 08:52:08;;;;;;;14.45;4.75;;;;;;;16.20;100.00;102625.81;5051034;28;20027;-73
2023/10/08 08:54:36;;;;;;;17.23;4.75;;;;;;;16.27;100.00;102622.06;5068605;28;20446;-74
2023/10/08 08:57:12;;;;;;;19.92;4.88;;;;;;;16.09;100.00;102620.81;5068114;28;20027;-63
2023/10/08 08:59:39;;;;;;;16.35;4.82;;;;;;;16.25;100.00;102608.78;5066507;28;20035;-64
2023/10/08 09:02:07;;;;;;;15.35;4.53;;;;;;;16.35;100.00;102614.72;5050794;28;20287;-63
2023/10/08 09:04:33;;;;;;;18.40;4.32;;;;;;;16.50;100.00;102620.50;5050746;28;20024;-64
2023/10/08 09:07:00;;;;;;;15.27;4.18;;;;;;;16.55;100.00;102610.56;5051019;28;20082;-62
2023/10/08 09:09:31;;;;;;;10.13;3.50;;;;;;;16.87;100.00;102606.03;5069597;28;20048;-62
2023/10/08 09:11:57;;;;;;;11.45;4.47;;;;;;;16.87;100.00;102611.34;5067317;28;20806;-63
2023/10/08 09:14:25;;;;;;;9.15;3.22;;;;;;;16.76;100.00;102619.69;5050985;28;20024;-62
2023/10/08 09:16:51;;;;;;;16.63;4.22;;;;;;;16.76;100.00;102614.34;5068078;28;20036;-64
2023/10/08 09:19:19;;;;;;;13.85;3.45;;;;;;;16.75;100.00;102609.97;5068127;28;20089;-63
2023/10/08 09:22:02;;;;;;;20.75;4.25;;;;;;;16.95;100.00;102599.56;5068659;28;20021;-63
2023/10/08 09:24:28;;;;;;;13.80;4.00;;;;;;;16.96;100.00;102604.84;5068986;28;20060;-65
2023/10/08 09:26:55;;;;;;;10.68;4.10;;;;;;;17.22;100.00;102604.94;5067356;28;20067;-62
2023/10/08 09:29:23;;;;;;;10.45;3.72;;;;;;;17.23;100.00;102596.00;5068823;28;20040;-63
2023/10/08 09:31:59;;;;;;;15.00;4.05;;;;;;;17.42;100.00;102594.47;5071894;28;20032;-63
2023/10/08 09:34:29;;;;;;;11.35;3.42;;;;;;;17.16;100.00;102600.69;5054328;28;20388;-64
2023/10/08 09:36:56;;;;;;;12.07;3.38;;;;;;;17.24;100.00;102619.06;5072404;28;20466;-64
2023/10/08 09:39:26;;;;;;;14.07;3.88;;;;;;;17.14;100.00;102614.06;5072153;28;20099;-65
2023/10/08 09:41:53;;;;;;;15.40;4.60;;;;;;;17.17;100.00;102621.94;5070821;28;20036;-63
2023/10/08 09:44:19;;;;;;;15.20;3.80;;;;;;;17.32;100.00;102622.34;5071922;28;20537;-62
2023/10/08 09:46:50;;;;;;;10.70;3.90;;;;;;;17.24;100.00;102614.59;5069463;28;20040;-62
2023/10/08 09:49:16;;;;;;;11.13;3.83;;;;;;;17.20;100.00;102599.66;5044074;28;20100;-63
2023/10/08 09:51:43;;;;;;;10.70;3.47;;;;;;;17.20;100.00;102596.13;5054061;28;20489;-62
2023/10/08 09:54:18;;;;;;;10.73;3.80;;;;;;;17.30;100.00;102598.41;5050825;28;20027;-63
2023/10/08 09:56:44;;;;;;;14.38;3.70;;;;;;;17.78;100.00;102592.31;5069143;28;20032;-63
2023/10/08 09:59:10;;;;;;;13.70;3.97;;;;;;;17.51;100.00;102605.72;5072006;28;20028;-62
2023/10/08 10:01:37;;;;;;;15.18;3.83;;;;;;;17.61;100.00;102612.44;5053700;28;20027;-64
2023/10/08 10:04:08;;;;;;;12.20;4.00;;;;;;;17.32;100.00;102601.03;5058942;28;20029;-63
2023/10/08 10:06:36;;;;;;;12.07;4.15;;;;;;;17.21;100.00;102597.84;5051423;28;20032;-62
2023/10/08 10:09:01;;;;;;;14.35;4.65;;;;;;;17.11;100.00;102590.19;5052428;28;20102;-64
2023/10/08 10:11:28;;;;;;;11.30;4.38;;;;;;;17.32;100.00;102603.69;5070549;28;20491;-64
2023/10/08 10:14:01;;;;;;;14.98;3.92;;;;;;;17.36;100.00;102610.66;5071236;28;20099;-64
2023/10/08 10:16:27;;;;;;;17.77;4.93;;;;;;;17.46;100.00;102616.53;5071777;28;20097;-63
2023/10/08 10:19:00;;;;;;;19.67;5.20;;;;;;;17.27;100.00;102609.19;5071698;28;20482;-63
2023/10/08 10:21:33;;;;;;;10.43;4.28;;;;;;;17.63;100.00;102620.41;5071030;28;20115;-63
2023/10/08 10:23:59;;;;;;;19.85;5.07;;;;;;;17.68;100.00;102626.44;5071794;28;20028;-64
2023/10/08 10:26:35;;;;;;;8.93;4.18;;;;;;;17.63;100.00;102628.38;5070966;28;20050;-63
2023/10/08 10:29:15;;;;;;;10.23;4.45;;;;;;;17.61;100.00;102627.59;5071675;28;20025;-65
2023/10/08 10:31:47;;;;;;;14.30;5.03;;;;;;;17.57;100.00;102632.16;5071043;28;20052;-63
2023/10/08 10:34:15;;;;;;;11.13;4.68;;;;;;;17.57;100.00;102629.47;5070737;28;20535;-63
2023/10/08 10:36:42;;;;;;;12.00;5.15;;;;;;;17.52;100.00;102634.13;5070772;28;20020;-62
2023/10/08 10:39:26;;;;;;;16.92;6.20;;;;;;;17.41;100.00;102632.69;5071269;28;20463;-65
2023/10/08 10:41:56;;;;;;;15.18;5.15;;;;;;;17.38;100.00;102627.47;5069374;28;20020;-70
2023/10/08 10:44:21;;;;;;;12.80;4.90;;;;;;;17.60;100.00;102636.50;5070829;28;20082;-70
2023/10/08 10:47:22;;;;;;;14.90;5.43;;;;;;;17.36;100.00;102623.97;5070884;28;20392;-71
2023/10/08 10:49:47;;;;;;;17.77;5.13;;;;;;;17.36;100.00;102628.41;5070119;28;20040;-63
2023/10/08 10:52:18;;;;;;;12.98;4.70;;;;;;;17.48;100.00;102619.13;5070975;28;20380;-71
2023/10/08 10:54:57;;;;;;;15.77;5.45;;;;;;;17.48;100.00;102617.34;5070344;28;20081;-70
2023/10/08 10:57:26;;;;;;;15.38;4.85;;;;;;;17.47;100.00;102609.41;5070069;28;20031;-70
2023/10/08 10:59:53;;;;;;;19.15;5.35;;;;;;;17.60;100.00;102607.16;5070425;28;20017;-69
2023/10/08 11:02:30;;;;;;;11.25;4.88;;;;;;;17.77;100.00;102607.47;5070945;28;20024;-70
2023/10/08 11:05:02;;;;;;;18.10;5.65;;;;;;;17.93;100.00;102605.09;5069642;28;20506;-69
2023/10/08 11:07:29;;;;;;;16.63;4.88;;;;;;;17.88;100.00;102607.03;5054359;28;20023;-71
2023/10/08 11:09:55;;;;;;;11.77;5.07;;;;;;;17.94;100.00;102605.94;5057449;28;20024;-71
2023/10/08 11:12:32;;;;;;;14.90;5.13;;;;;;;18.18;100.00;102601.53;5051789;28;20035;-70
2023/10/08 11:14:58;;;;;;;11.27;4.32;;;;;;;18.13;100.00;102597.28;5070447;28;20078;-68
2023/10/08 11:17:25;;;;;;;12.70;4.53;;;;;;;18.35;100.00;102592.00;5069774;28;20123;-70
2023/10/08 11:19:51;;;;;;;12.65;4.53;;;;;;;18.42;100.00;102597.94;5069784;28;20417;-68
2023/10/08 11:22:16;;;;;;;11.40;4.70;;;;;;;18.40;100.00;102603.38;5069849;28;20078;-68
2023/10/08 11:24:47;;;;;;;10.05;4.38;;;;;;;18.92;100.00;102606.66;5061667;28;20498;-68
2023/10/08 11:27:39;;;;;;;13.65;5.30;;;;;;;18.85;100.00;102606.06;5064522;28;20092;-68
2023/10/08 11:30:10;;;;;;;13.85;4.35;;;;;;;19.15;100.00;102607.53;5069121;28;20475;-69
2023/10/08 11:32:37;;;;;;;10.65;4.47;;;;;;;19.41;100.00;102603.75;5069639;28;20033;-67
2023/10/08 11:35:15;;;;;;;13.60;4.72;;;;;;;19.55;100.00;102595.13;5069104;28;20028;-62
2023/10/08 11:37:45;;;;;;;12.37;4.13;;;;;;;19.38;100.00;102597.69;5069721;28;20028;-67
2023/10/08 11:40:28;;;;;;;12.32;5.10;;;;;;;19.02;100.00;102597.31;5069472;28;20025;-69
2023/10/08 11:42:56;;;;;;;10.82;5.07;;;;;;;18.86;100.00;102593.56;5068179;28;20038;-69
2023/10/08 11:45:25;;;;;;;12.45;4.20;;;;;;;18.88;100.00;102597.03;5069565;28;20028;-72
2023/10/08 11:48:11;;;;;;;11.98;4.20;;;;;;;19.12;100.00;102595.19;5069505;28;20465;-70
2023/10/08 11:50:38;;;;;;;8.10;4.20;;;;;;;19.21;100.00;102595.72;5068937;28;20064;-68
2023/10/08 11:53:05;;;;;;;12.63;4.70;;;;;;;19.32;100.00;102593.44;5068331;28;20103;-67
2023/10/08 11:55:35;;;;;;;15.25;5.00;;;;;;;19.09;100.00;102592.66;5069756;28;20120;-65
2023/10/08 11:58:01;;;;;;;14.80;5.10;;;;;;;19.02;100.00;102588.47;5069111;28;20386;-72
2023/10/08 12:00:26;;;;;;;10.55;4.93;;;;;;;19.28;100.00;102586.50;5069108;28;20107;-71
2023/10/08 12:02:55;;;;;;;8.35;4.57;;;;;;;19.57;100.00;102577.19;5069081;28;20507;-71
2023/10/08 12:05:24;;;;;;;9.40;4.75;;;;;;;19.52;100.00;102573.88;5068629;28;20024;-74
2023/10/08 12:07:51;;;;;;;13.38;5.30;;;;;;;19.69;100.00;102566.91;5069051;28;20025;-71
2023/10/08 12:10:21;;;;;;;12.52;5.10;;;;;;;19.91;100.00;102568.59;5069184;28;20035;-70
2023/10/08 12:12:54;;;;;;;9.73;5.63;;;;;;;20.18;100.00;102555.75;5067421;28;20023;-69
2023/10/08 12:15:20;;;;;;;10.68;5.53;;;;;;;20.24;100.00;102548.34;5068751;28;20072;-68
2023/10/08 12:18:08;;;;;;;13.75;5.70;;;;;;;19.93;100.00;102554.19;5068770;28;20020;-64
2023/10/08 12:20:34;;;;;;;13.55;5.38;;;;;;;20.00;100.00;102548.56;5054486;28;20051;-65